Terminal Aerodrome Forecast
Issued by NWS

Home | Current Version | Previous Version | Text Only | Print | Product List | Glossary On
Versions: 1 2 3 4 5 6 7 8 9 10 11 12 13 14 15 16 17
000
FTUS44 KLIX 200600 AAA
TAFMSY
TAF AMD
KMSY 200658Z 2007/2106 06011KT 5SM -RA BR BKN009 OVC025
     FM200800 04013KT 6SM BR BKN007 BKN013
     FM201500 03013KT P6SM OVC010
     FM201900 02012KT P6SM BKN025
     FM210300 03008KT P6SM BKN035=

USA.gov is the U.S. government's official web portal to all federal, state and local government web resources and services.